Time;durP1;ratioP1;P1;durP2;ratioP2;P2;SDS_P1;SDS_P2;PMS_P1;PMS_P2;Temp;Humidity;BMP_temperature;BMP_pressure;BME280_temperature;BME280_humidity;BME280_pressure;Samples;Min_cycle;Max_cycle;Signal;HPM_P1;HPM_P2
2021/06/17 00:02:50;;;;;;;17.3;15.6;;;;;;;25.3;42.9;100740;;;;
2021/06/17 00:04:50;;;;;;;17.3;15.6;;;;;;;25.1;42.6;100750;;;;
2021/06/17 00:06:50;;;;;;;17.3;15.6;;;;;;;24.9;42.6;100750;;;;
2021/06/17 00:08:50;;;;;;;17.3;15.6;;;;;;;24.8;44.3;100740;;;;
2021/06/17 00:10:50;;;;;;;17.3;15.6;;;;;;;24.9;44.1;100740;;;;
2021/06/17 00:12:50;;;;;;;17.3;15.6;;;;;;;24.8;44.1;100750;;;;
2021/06/17 00:20:50;;;;;;;17.3;15.6;;;;;;;24.9;42.5;100750;;;;
2021/06/17 00:22:50;;;;;;;18.9;17.1;;;;;;;25.0;43.2;100750;;;;
2021/06/17 00:24:50;;;;;;;18.9;17.1;;;;;;;24.9;42.6;100750;;;;
2021/06/17 00:26:50;;;;;;;18.9;17.1;;;;;;;24.8;42.6;100750;;;;
2021/06/17 00:30:50;;;;;;;18.9;17.1;;;;;;;24.6;43.4;100750;;;;
2021/06/17 00:34:50;;;;;;;18.9;17.1;;;;;;;24.7;43.6;100750;;;;
2021/06/17 00:36:50;;;;;;;18.9;17.1;;;;;;;24.6;42.7;100740;;;;
2021/06/17 00:42:50;;;;;;;18.8;17.0;;;;;;;24.8;43.3;100740;;;;
2021/06/17 00:44:50;;;;;;;18.8;17.0;;;;;;;24.5;43.4;100740;;;;
2021/06/17 00:46:50;;;;;;;18.8;17.0;;;;;;;24.4;45.6;100740;;;;
2021/06/17 00:48:50;;;;;;;18.8;17.0;;;;;;;24.3;44.2;100730;;;;
2021/06/17 00:50:50;;;;;;;18.8;17.0;;;;;;;24.4;44.3;100730;;;;
2021/06/17 00:52:50;;;;;;;18.8;17.0;;;;;;;24.3;44.8;100720;;;;
2021/06/17 00:54:50;;;;;;;18.8;17.0;;;;;;;24.2;45.2;100720;;;;
2021/06/17 00:56:50;;;;;;;18.8;17.0;;;;;;;24.3;44.4;100720;;;;
2021/06/17 00:58:50;;;;;;;18.8;17.0;;;;;;;24.2;44.7;100720;;;;
2021/06/17 01:02:50;;;;;;;18.7;17.1;;;;;;;24.4;43.8;100710;;;;
2021/06/17 01:04:50;;;;;;;18.7;17.1;;;;;;;24.3;44.2;100710;;;;
2021/06/17 01:06:50;;;;;;;18.7;17.1;;;;;;;24.2;44.2;100720;;;;
2021/06/17 01:10:50;;;;;;;18.7;17.1;;;;;;;24.1;45.3;100720;;;;
2021/06/17 01:14:51;;;;;;;18.7;17.1;;;;;;;24.2;43.6;100710;;;;
2021/06/17 01:18:50;;;;;;;18.7;17.1;;;;;;;24.1;44.3;100710;;;;
2021/06/17 01:20:50;;;;;;;18.7;17.1;;;;;;;24.0;44.9;100710;;;;
2021/06/17 01:22:50;;;;;;;19.3;17.6;;;;;;;24.1;43.8;100710;;;;
2021/06/17 01:30:50;;;;;;;19.3;17.6;;;;;;;24.0;44.2;100710;;;;
2021/06/17 01:34:50;;;;;;;19.3;17.6;;;;;;;23.8;44.4;100710;;;;
2021/06/17 01:36:50;;;;;;;19.3;17.6;;;;;;;23.7;44.8;100720;;;;
2021/06/17 01:38:50;;;;;;;19.3;17.6;;;;;;;23.8;44.7;100720;;;;
2021/06/17 01:42:50;;;;;;;18.7;17.1;;;;;;;24.0;43.9;100720;;;;
2021/06/17 01:44:50;;;;;;;18.7;17.1;;;;;;;23.9;43.8;100720;;;;
2021/06/17 01:46:50;;;;;;;18.7;17.1;;;;;;;23.7;45.5;100720;;;;
2021/06/17 01:48:50;;;;;;;18.7;17.1;;;;;;;23.5;46.0;100730;;;;
2021/06/17 01:52:50;;;;;;;18.7;17.1;;;;;;;23.6;45.3;100730;;;;
2021/06/17 01:56:50;;;;;;;18.7;17.1;;;;;;;23.5;45.4;100720;;;;
2021/06/17 02:00:50;;;;;;;18.7;17.1;;;;;;;23.6;44.9;100710;;;;
2021/06/17 02:02:50;;;;;;;19.7;17.9;;;;;;;23.8;44.4;100710;;;;
2021/06/17 02:04:50;;;;;;;19.7;17.9;;;;;;;23.7;44.8;100710;;;;
2021/06/17 02:06:50;;;;;;;19.7;17.9;;;;;;;23.5;44.2;100710;;;;
2021/06/17 02:12:50;;;;;;;19.7;17.9;;;;;;;23.3;46.4;100710;;;;
2021/06/17 02:16:50;;;;;;;19.7;17.9;;;;;;;23.4;44.9;100710;;;;
2021/06/17 02:22:50;;;;;;;19.8;18.1;;;;;;;23.5;44.7;100710;;;;
2021/06/17 02:24:51;;;;;;;19.8;18.1;;;;;;;23.4;44.8;100710;;;;
2021/06/17 02:28:50;;;;;;;19.8;18.1;;;;;;;23.3;45.7;100710;;;;
2021/06/17 02:30:50;;;;;;;19.8;18.1;;;;;;;23.2;46.5;100700;;;;
2021/06/17 02:38:51;;;;;;;19.8;18.1;;;;;;;23.1;46.5;100700;;;;
2021/06/17 02:42:50;;;;;;;22.2;20.2;;;;;;;23.4;45.8;100700;;;;
2021/06/17 02:44:50;;;;;;;22.2;20.2;;;;;;;23.1;47.3;100690;;;;
2021/06/17 02:46:50;;;;;;;22.2;20.2;;;;;;;23.0;47.3;100690;;;;
2021/06/17 02:50:50;;;;;;;22.2;20.2;;;;;;;22.9;49.0;100680;;;;
2021/06/17 02:56:50;;;;;;;22.2;20.2;;;;;;;22.7;49.8;100680;;;;
2021/06/17 02:58:50;;;;;;;22.2;20.2;;;;;;;22.8;48.4;100680;;;;
2021/06/17 03:00:50;;;;;;;22.2;20.2;;;;;;;22.9;49.0;100680;;;;
2021/06/17 03:06:50;;;;;;;21.9;20.0;;;;;;;22.8;48.2;100690;;;;
2021/06/17 03:10:50;;;;;;;21.9;20.0;;;;;;;22.7;50.9;100690;;;;
2021/06/17 03:14:50;;;;;;;21.9;20.0;;;;;;;22.8;50.2;100680;;;;
2021/06/17 03:16:50;;;;;;;21.9;20.0;;;;;;;22.7;49.5;100680;;;;
2021/06/17 03:22:50;;;;;;;23.7;21.6;;;;;;;22.6;51.5;100680;;;;
2021/06/17 03:24:50;;;;;;;23.7;21.6;;;;;;;22.7;51.3;100680;;;;
2021/06/17 03:30:50;;;;;;;23.7;21.6;;;;;;;22.6;51.8;100680;;;;
2021/06/17 03:32:50;;;;;;;23.7;21.6;;;;;;;22.8;51.7;100680;;;;
2021/06/17 03:36:50;;;;;;;23.7;21.6;;;;;;;22.7;52.6;100670;;;;
2021/06/17 03:40:50;;;;;;;23.7;21.6;;;;;;;22.9;50.4;100670;;;;
2021/06/17 03:44:50;;;;;;;24.3;22.1;;;;;;;22.8;51.3;100680;;;;
2021/06/17 03:48:50;;;;;;;24.3;22.1;;;;;;;22.9;51.4;100670;;;;
2021/06/17 03:52:50;;;;;;;24.3;22.1;;;;;;;22.7;52.2;100670;;;;
2021/06/17 03:54:50;;;;;;;24.3;22.1;;;;;;;22.8;52.3;100670;;;;
2021/06/17 03:58:50;;;;;;;24.3;22.1;;;;;;;22.9;51.2;100680;;;;
2021/06/17 04:02:50;;;;;;;25.4;23.2;;;;;;;23.0;49.9;100680;;;;
2021/06/17 04:08:50;;;;;;;25.4;23.2;;;;;;;22.9;52.0;100680;;;;
2021/06/17 04:12:50;;;;;;;25.4;23.2;;;;;;;23.0;51.4;100680;;;;
2021/06/17 04:14:50;;;;;;;25.4;23.2;;;;;;;23.1;51.6;100690;;;;
2021/06/17 04:22:50;;;;;;;27.7;25.3;;;;;;;23.2;53.6;100690;;;;
2021/06/17 04:24:50;;;;;;;27.7;25.3;;;;;;;23.3;52.3;100690;;;;
2021/06/17 04:26:50;;;;;;;27.7;25.3;;;;;;;23.2;51.7;100690;;;;
2021/06/17 04:28:50;;;;;;;27.7;25.3;;;;;;;23.3;51.7;100690;;;;
2021/06/17 04:30:50;;;;;;;27.7;25.3;;;;;;;23.4;53.5;100690;;;;
2021/06/17 04:32:50;;;;;;;27.7;25.3;;;;;;;23.5;51.7;100690;;;;
2021/06/17 04:36:50;;;;;;;27.7;25.3;;;;;;;23.6;53.9;100700;;;;
2021/06/17 04:42:50;;;;;;;27.5;25.2;;;;;;;23.7;54.2;100690;;;;
2021/06/17 04:44:50;;;;;;;27.5;25.2;;;;;;;23.6;53.8;100690;;;;
2021/06/17 04:48:50;;;;;;;27.5;25.2;;;;;;;23.7;53.6;100700;;;;
2021/06/17 04:50:50;;;;;;;27.5;25.2;;;;;;;23.6;54.5;100700;;;;
2021/06/17 04:52:50;;;;;;;27.5;25.2;;;;;;;23.7;52.7;100700;;;;
2021/06/17 04:54:50;;;;;;;27.5;25.2;;;;;;;23.8;53.2;100710;;;;
2021/06/17 04:58:50;;;;;;;27.5;25.2;;;;;;;24.0;53.5;100700;;;;
2021/06/17 05:00:50;;;;;;;27.5;25.2;;;;;;;23.9;53.6;100710;;;;
2021/06/17 05:02:50;;;;;;;27.0;24.6;;;;;;;24.0;53.2;100700;;;;
2021/06/17 05:16:50;;;;;;;27.0;24.6;;;;;;;24.2;53.6;100700;;;;
2021/06/17 05:18:50;;;;;;;27.0;24.6;;;;;;;24.3;53.1;100700;;;;
2021/06/17 05:20:50;;;;;;;27.0;24.6;;;;;;;24.2;53.8;100700;;;;
2021/06/17 05:22:50;;;;;;;25.1;22.8;;;;;;;24.4;53.3;100710;;;;
2021/06/17 05:28:50;;;;;;;25.1;22.8;;;;;;;24.6;52.4;100700;;;;
2021/06/17 05:30:50;;;;;;;25.1;22.8;;;;;;;24.5;52.2;100700;;;;
2021/06/17 05:32:50;;;;;;;25.1;22.8;;;;;;;24.6;52.3;100700;;;;
2021/06/17 05:34:50;;;;;;;25.1;22.8;;;;;;;24.5;52.4;100710;;;;
2021/06/17 05:38:51;;;;;;;25.1;22.8;;;;;;;24.8;52.2;100700;;;;
2021/06/17 05:42:50;;;;;;;20.5;18.6;;;;;;;24.9;51.4;100700;;;;
2021/06/17 05:44:52;;;;;;;20.5;18.6;;;;;;;24.8;51.4;100710;;;;
2021/06/17 05:46:50;;;;;;;20.5;18.6;;;;;;;24.9;50.1;100710;;;;
2021/06/17 05:48:50;;;;;;;20.5;18.6;;;;;;;25.0;50.8;100720;;;;
2021/06/17 05:50:50;;;;;;;20.5;18.6;;;;;;;25.1;50.1;100720;;;;
2021/06/17 05:52:50;;;;;;;20.5;18.6;;;;;;;25.0;50.5;100720;;;;
2021/06/17 05:54:50;;;;;;;20.5;18.6;;;;;;;25.1;50.1;100720;;;;
2021/06/17 05:56:50;;;;;;;20.5;18.6;;;;;;;25.2;49.4;100720;;;;
2021/06/17 05:58:50;;;;;;;20.5;18.6;;;;;;;25.3;48.7;100720;;;;
2021/06/17 06:00:50;;;;;;;20.5;18.6;;;;;;;25.4;48.3;100720;;;;
2021/06/17 06:02:50;;;;;;;14.4;12.9;;;;;;;25.6;48.1;100720;;;;
2021/06/17 06:04:50;;;;;;;14.4;12.9;;;;;;;25.3;48.1;100720;;;;
2021/06/17 06:06:51;;;;;;;14.4;12.9;;;;;;;25.5;48.0;100720;;;;
2021/06/17 06:08:52;;;;;;;14.4;12.9;;;;;;;25.7;47.5;100720;;;;
2021/06/17 06:10:50;;;;;;;14.4;12.9;;;;;;;25.8;47.0;100720;;;;
2021/06/17 06:12:50;;;;;;;14.4;12.9;;;;;;;25.9;46.3;100720;;;;
2021/06/17 06:14:50;;;;;;;14.4;12.9;;;;;;;26.0;45.9;100730;;;;
2021/06/17 06:18:50;;;;;;;14.4;12.9;;;;;;;26.3;46.0;100730;;;;
2021/06/17 06:20:50;;;;;;;14.4;12.9;;;;;;;26.2;45.7;100740;;;;
2021/06/17 06:22:50;;;;;;;12.8;10.2;;;;;;;26.4;45.6;100740;;;;
2021/06/17 06:24:50;;;;;;;12.8;10.2;;;;;;;26.5;45.5;100730;;;;
2021/06/17 06:28:50;;;;;;;12.8;10.2;;;;;;;26.7;44.8;100740;;;;
2021/06/17 06:32:50;;;;;;;12.8;10.2;;;;;;;26.8;44.3;100730;;;;
2021/06/17 06:34:50;;;;;;;12.8;10.2;;;;;;;26.9;44.1;100730;;;;
2021/06/17 06:38:50;;;;;;;12.8;10.2;;;;;;;26.8;44.1;100720;;;;
2021/06/17 06:40:52;;;;;;;12.8;10.2;;;;;;;26.9;43.5;100730;;;;
2021/06/17 06:42:50;;;;;;;11.1;8.6;;;;;;;26.8;43.4;100730;;;;
2021/06/17 06:50:50;;;;;;;11.1;8.6;;;;;;;26.9;43.7;100740;;;;
2021/06/17 06:54:50;;;;;;;11.1;8.6;;;;;;;27.0;43.7;100730;;;;
2021/06/17 07:06:50;;;;;;;10.8;8.2;;;;;;;26.9;44.4;100760;;;;
2021/06/17 07:08:50;;;;;;;10.8;8.2;;;;;;;27.0;44.0;100760;;;;
2021/06/17 07:12:50;;;;;;;10.8;8.2;;;;;;;27.2;43.9;100770;;;;
2021/06/17 07:16:50;;;;;;;10.8;8.2;;;;;;;27.4;43.6;100780;;;;
2021/06/17 07:18:50;;;;;;;10.8;8.2;;;;;;;27.5;41.8;100780;;;;
2021/06/17 07:20:50;;;;;;;10.8;8.2;;;;;;;27.6;41.9;100780;;;;
2021/06/17 07:22:54;;;;;;;8.6;5.5;;;;;;;27.8;40.9;100770;;;;
2021/06/17 07:24:50;;;;;;;8.6;5.5;;;;;;;27.7;40.1;100770;;;;
2021/06/17 07:26:52;;;;;;;8.6;5.5;;;;;;;27.6;40.2;100780;;;;
2021/06/17 07:28:50;;;;;;;8.6;5.5;;;;;;;27.8;40.0;100780;;;;
2021/06/17 07:30:50;;;;;;;8.6;5.5;;;;;;;27.9;39.9;100780;;;;
2021/06/17 07:32:50;;;;;;;8.6;5.5;;;;;;;28.1;40.4;100770;;;;
2021/06/17 07:34:50;;;;;;;8.6;5.5;;;;;;;28.3;39.7;100770;;;;
2021/06/17 07:36:50;;;;;;;8.6;5.5;;;;;;;28.2;39.9;100780;;;;
2021/06/17 07:38:50;;;;;;;8.6;5.5;;;;;;;28.1;39.5;100780;;;;
2021/06/17 07:40:50;;;;;;;8.6;5.5;;;;;;;28.2;39.3;100780;;;;
2021/06/17 07:44:51;;;;;;;8.7;3.9;;;;;;;28.3;39.6;100780;;;;
2021/06/17 07:46:50;;;;;;;8.7;3.9;;;;;;;28.4;39.6;100780;;;;
2021/06/17 07:50:50;;;;;;;8.7;3.9;;;;;;;28.5;39.3;100780;;;;
2021/06/17 07:52:50;;;;;;;8.7;3.9;;;;;;;28.4;39.3;100790;;;;
2021/06/17 07:54:50;;;;;;;8.7;3.9;;;;;;;28.3;39.3;100790;;;;
2021/06/17 07:58:50;;;;;;;8.7;3.9;;;;;;;28.5;39.6;100780;;;;
2021/06/17 08:00:50;;;;;;;8.7;3.9;;;;;;;28.4;39.8;100780;;;;
2021/06/17 08:04:50;;;;;;;14.9;4.6;;;;;;;28.7;39.4;100770;;;;
2021/06/17 08:06:50;;;;;;;14.9;4.6;;;;;;;28.8;39.4;100780;;;;
2021/06/17 08:08:50;;;;;;;14.9;4.6;;;;;;;28.9;39.4;100780;;;;
2021/06/17 08:12:50;;;;;;;14.9;4.6;;;;;;;28.8;39.7;100770;;;;
2021/06/17 08:14:50;;;;;;;14.9;4.6;;;;;;;29.1;39.6;100770;;;;
2021/06/17 08:20:50;;;;;;;14.9;4.6;;;;;;;29.2;39.1;100750;;;;
2021/06/17 08:26:50;;;;;;;4.3;3.7;;;;;;;29.3;38.8;100750;;;;
2021/06/17 08:28:50;;;;;;;4.3;3.7;;;;;;;29.5;39.1;100750;;;;
2021/06/17 08:32:50;;;;;;;4.3;3.7;;;;;;;29.3;38.1;100740;;;;
2021/06/17 08:34:50;;;;;;;4.3;3.7;;;;;;;29.2;38.3;100740;;;;
2021/06/17 08:38:50;;;;;;;4.3;3.7;;;;;;;29.4;38.0;100740;;;;
2021/06/17 08:44:50;;;;;;;8.9;3.7;;;;;;;29.5;38.3;100720;;;;
2021/06/17 08:46:51;;;;;;;8.9;3.7;;;;;;;29.6;38.4;100720;;;;
2021/06/17 08:52:50;;;;;;;8.9;3.7;;;;;;;29.7;38.7;100710;;;;
2021/06/17 08:54:50;;;;;;;8.9;3.7;;;;;;;29.8;38.5;100710;;;;
2021/06/17 08:56:50;;;;;;;8.9;3.7;;;;;;;30.0;38.0;100700;;;;
2021/06/17 09:00:50;;;;;;;8.9;3.7;;;;;;;29.8;37.9;100700;;;;
2021/06/17 09:02:50;;;;;;;5.6;3.8;;;;;;;29.9;37.5;100700;;;;
2021/06/17 09:04:50;;;;;;;5.6;3.8;;;;;;;30.0;37.5;100700;;;;
2021/06/17 09:06:50;;;;;;;5.6;3.8;;;;;;;30.1;37.2;100700;;;;
2021/06/17 09:08:50;;;;;;;5.6;3.8;;;;;;;30.3;36.8;100700;;;;
2021/06/17 09:24:03;;;;;;;8.0;4.2;;;;;;;30.5;36.6;100670;;;;
2021/06/17 09:26:04;;;;;;;8.0;4.2;;;;;;;30.6;37.6;100660;;;;
2021/06/17 09:28:03;;;;;;;8.0;4.2;;;;;;;30.8;36.2;100660;;;;
2021/06/17 09:34:03;;;;;;;8.0;4.2;;;;;;;31.0;35.5;100670;;;;
2021/06/17 09:40:03;;;;;;;8.0;4.2;;;;;;;31.2;35.6;100680;;;;
2021/06/17 09:42:03;;;;;;;5.7;3.8;;;;;;;31.4;35.5;100680;;;;
2021/06/17 09:44:03;;;;;;;5.7;3.8;;;;;;;31.5;34.6;100680;;;;
2021/06/17 09:46:05;;;;;;;5.7;3.8;;;;;;;31.6;34.7;100680;;;;
2021/06/17 09:48:03;;;;;;;5.7;3.8;;;;;;;31.5;34.6;100680;;;;
2021/06/17 09:52:03;;;;;;;5.7;3.8;;;;;;;31.6;34.8;100690;;;;
2021/06/17 09:54:03;;;;;;;5.7;3.8;;;;;;;31.9;34.3;100690;;;;
2021/06/17 09:57:01;;;;;;;5.7;3.8;;;;;;;31.9;34.7;100690;;;;
2021/06/17 09:58:03;;;;;;;5.7;3.8;;;;;;;32.3;34.9;100690;;;;
2021/06/17 10:02:04;;;;;;;10.7;4.3;;;;;;;32.5;33.8;100690;;;;
2021/06/17 10:04:03;;;;;;;10.7;4.3;;;;;;;32.6;34.0;100690;;;;
2021/06/17 10:06:03;;;;;;;10.7;4.3;;;;;;;32.5;33.7;100690;;;;
2021/06/17 10:10:03;;;;;;;10.7;4.3;;;;;;;32.2;34.1;100690;;;;
2021/06/17 10:12:03;;;;;;;10.7;4.3;;;;;;;32.3;33.9;100690;;;;
2021/06/17 10:14:03;;;;;;;10.7;4.3;;;;;;;32.7;34.7;100690;;;;
2021/06/17 10:16:03;;;;;;;10.7;4.3;;;;;;;32.9;33.7;100690;;;;
2021/06/17 10:22:03;;;;;;;6.5;4.8;;;;;;;32.8;33.0;100700;;;;
2021/06/17 10:24:03;;;;;;;6.5;4.8;;;;;;;32.9;33.6;100710;;;;
2021/06/17 10:26:03;;;;;;;6.5;4.8;;;;;;;33.0;33.7;100700;;;;
2021/06/17 10:28:04;;;;;;;6.5;4.8;;;;;;;33.1;34.6;100710;;;;
2021/06/17 10:34:03;;;;;;;6.5;4.8;;;;;;;33.2;33.6;100720;;;;
2021/06/17 10:36:03;;;;;;;6.5;4.8;;;;;;;33.4;35.0;100720;;;;
2021/06/17 10:38:03;;;;;;;6.5;4.8;;;;;;;33.5;34.2;100720;;;;
2021/06/17 10:40:04;;;;;;;6.5;4.8;;;;;;;33.4;34.2;100730;;;;
2021/06/17 10:42:04;;;;;;;7.0;4.7;;;;;;;33.5;33.1;100730;;;;
2021/06/17 10:44:03;;;;;;;7.0;4.7;;;;;;;33.4;32.8;100740;;;;
2021/06/17 10:46:03;;;;;;;7.0;4.7;;;;;;;33.5;34.3;100740;;;;
2021/06/17 10:48:05;;;;;;;7.0;4.7;;;;;;;33.6;32.9;100740;;;;
2021/06/17 10:50:03;;;;;;;7.0;4.7;;;;;;;33.7;33.5;100740;;;;
2021/06/17 10:54:03;;;;;;;7.0;4.7;;;;;;;33.6;33.5;100740;;;;
2021/06/17 10:58:05;;;;;;;7.0;4.7;;;;;;;33.8;33.7;100750;;;;
2021/06/17 11:00:03;;;;;;;7.0;4.7;;;;;;;33.7;33.9;100750;;;;
2021/06/17 11:02:03;;;;;;;6.4;4.1;;;;;;;33.9;33.2;100750;;;;
2021/06/17 11:04:03;;;;;;;6.4;4.1;;;;;;;33.8;33.6;100760;;;;
2021/06/17 11:10:04;;;;;;;6.4;4.1;;;;;;;33.6;33.7;100740;;;;
2021/06/17 11:12:03;;;;;;;6.4;4.1;;;;;;;33.7;34.3;100750;;;;
2021/06/17 11:16:03;;;;;;;6.4;4.1;;;;;;;33.6;33.6;100750;;;;
2021/06/17 11:18:03;;;;;;;6.4;4.1;;;;;;;33.5;33.8;100750;;;;
2021/06/17 11:20:05;;;;;;;6.4;4.1;;;;;;;33.3;33.0;100750;;;;
2021/06/17 11:22:03;;;;;;;5.8;3.9;;;;;;;33.4;33.5;100760;;;;
2021/06/17 11:26:03;;;;;;;5.8;3.9;;;;;;;33.2;33.9;100760;;;;
2021/06/17 11:32:03;;;;;;;5.8;3.9;;;;;;;33.1;31.0;100760;;;;
2021/06/17 11:34:03;;;;;;;5.8;3.9;;;;;;;33.0;30.9;100760;;;;
2021/06/17 11:36:06;;;;;;;5.8;3.9;;;;;;;33.2;32.8;100760;;;;
2021/06/17 11:38:05;;;;;;;5.8;3.9;;;;;;;32.9;30.4;100770;;;;
2021/06/17 11:40:03;;;;;;;5.8;3.9;;;;;;;33.1;31.8;100760;;;;
2021/06/17 11:42:03;;;;;;;3.7;2.6;;;;;;;33.3;30.2;100770;;;;
2021/06/17 11:46:04;;;;;;;3.7;2.6;;;;;;;33.2;30.5;100770;;;;
2021/06/17 11:48:04;;;;;;;3.7;2.6;;;;;;;33.4;31.4;100780;;;;
2021/06/17 11:50:03;;;;;;;3.7;2.6;;;;;;;33.6;31.6;100780;;;;
2021/06/17 11:52:03;;;;;;;3.7;2.6;;;;;;;33.5;31.3;100780;;;;
2021/06/17 11:54:03;;;;;;;3.7;2.6;;;;;;;33.7;31.5;100790;;;;
2021/06/17 11:56:03;;;;;;;3.7;2.6;;;;;;;33.4;30.5;100790;;;;
2021/06/17 11:58:03;;;;;;;3.7;2.6;;;;;;;33.6;31.1;100790;;;;
2021/06/17 12:02:03;;;;;;;4.6;3.1;;;;;;;33.7;32.7;100780;;;;
2021/06/17 12:04:10;;;;;;;4.6;3.1;;;;;;;34.0;32.3;100790;;;;
2021/06/17 12:06:03;;;;;;;4.6;3.1;;;;;;;33.8;29.5;100780;;;;
2021/06/17 12:12:03;;;;;;;4.6;3.1;;;;;;;33.9;29.9;100780;;;;
2021/06/17 12:14:04;;;;;;;4.6;3.1;;;;;;;33.7;29.1;100780;;;;
2021/06/17 12:18:03;;;;;;;4.6;3.1;;;;;;;33.6;30.2;100790;;;;
2021/06/17 12:22:03;;;;;;;5.1;2.4;;;;;;;33.7;29.3;100790;;;;
2021/06/17 12:30:03;;;;;;;5.1;2.4;;;;;;;33.8;30.2;100800;;;;
2021/06/17 12:32:03;;;;;;;5.1;2.4;;;;;;;33.7;29.7;100790;;;;
2021/06/17 12:34:03;;;;;;;5.1;2.4;;;;;;;33.6;30.0;100800;;;;
2021/06/17 12:38:03;;;;;;;5.1;2.4;;;;;;;33.8;30.9;100800;;;;
2021/06/17 12:46:04;;;;;;;6.6;2.6;;;;;;;33.9;29.9;100800;;;;
2021/06/17 12:52:07;;;;;;;6.6;2.6;;;;;;;34.0;30.6;100800;;;;
2021/06/17 12:54:03;;;;;;;6.6;2.6;;;;;;;33.6;30.5;100810;;;;
2021/06/17 13:00:03;;;;;;;6.6;2.6;;;;;;;33.8;30.7;100810;;;;
2021/06/17 13:02:04;;;;;;;6.0;3.4;;;;;;;33.7;31.2;100810;;;;
2021/06/17 13:04:03;;;;;;;6.0;3.4;;;;;;;33.8;31.0;100810;;;;
2021/06/17 13:06:03;;;;;;;6.0;3.4;;;;;;;34.0;31.2;100800;;;;
2021/06/17 13:12:03;;;;;;;6.0;3.4;;;;;;;34.1;30.5;100810;;;;
2021/06/17 13:18:04;;;;;;;6.0;3.4;;;;;;;34.2;30.9;100810;;;;
2021/06/17 13:20:03;;;;;;;6.0;3.4;;;;;;;34.1;31.0;100810;;;;
2021/06/17 13:22:04;;;;;;;4.8;3.1;;;;;;;34.3;31.3;100810;;;;
2021/06/17 13:26:03;;;;;;;4.8;3.1;;;;;;;34.5;31.5;100820;;;;
2021/06/17 13:28:03;;;;;;;4.8;3.1;;;;;;;34.6;31.3;100810;;;;
2021/06/17 13:30:03;;;;;;;4.8;3.1;;;;;;;34.7;30.2;100810;;;;
2021/06/17 13:32:03;;;;;;;4.8;3.1;;;;;;;34.5;29.6;100810;;;;
2021/06/17 13:36:04;;;;;;;4.8;3.1;;;;;;;34.7;30.2;100810;;;;
2021/06/17 13:42:03;;;;;;;5.9;2.6;;;;;;;35.0;28.9;100810;;;;
2021/06/17 13:44:03;;;;;;;5.9;2.6;;;;;;;35.1;28.9;100810;;;;
2021/06/17 13:46:04;;;;;;;5.9;2.6;;;;;;;34.9;28.2;100800;;;;
2021/06/17 13:48:03;;;;;;;5.9;2.6;;;;;;;35.0;28.8;100800;;;;
2021/06/17 13:50:04;;;;;;;5.9;2.6;;;;;;;34.7;28.2;100800;;;;
2021/06/17 13:54:03;;;;;;;5.9;2.6;;;;;;;34.8;28.0;100800;;;;
2021/06/17 13:56:03;;;;;;;5.9;2.6;;;;;;;35.1;27.9;100800;;;;
2021/06/17 13:58:06;;;;;;;5.9;2.6;;;;;;;35.2;27.4;100810;;;;
2021/06/17 14:00:03;;;;;;;5.9;2.6;;;;;;;35.1;27.3;100800;;;;
2021/06/17 14:02:03;;;;;;;6.3;2.0;;;;;;;35.3;27.4;100810;;;;
2021/06/17 14:12:03;;;;;;;6.3;2.0;;;;;;;35.6;26.7;100810;;;;
2021/06/17 14:14:03;;;;;;;6.3;2.0;;;;;;;35.8;26.4;100810;;;;
2021/06/17 14:20:03;;;;;;;6.3;2.0;;;;;;;35.4;26.0;100840;;;;
2021/06/17 14:22:04;;;;;;;4.3;1.7;;;;;;;35.6;26.0;100830;;;;
2021/06/17 14:24:04;;;;;;;4.3;1.7;;;;;;;35.7;25.2;100830;;;;
2021/06/17 14:26:03;;;;;;;4.3;1.7;;;;;;;35.8;26.0;100830;;;;
2021/06/17 14:30:03;;;;;;;4.3;1.7;;;;;;;35.9;25.3;100830;;;;
2021/06/17 14:32:03;;;;;;;4.3;1.7;;;;;;;36.1;24.8;100830;;;;
2021/06/17 14:34:05;;;;;;;4.3;1.7;;;;;;;36.2;26.6;100840;;;;
2021/06/17 14:36:03;;;;;;;4.3;1.7;;;;;;;36.0;25.7;100840;;;;
2021/06/17 14:38:05;;;;;;;4.3;1.7;;;;;;;36.2;25.5;100830;;;;
2021/06/17 14:40:05;;;;;;;4.3;1.7;;;;;;;36.4;26.5;100840;;;;
2021/06/17 14:42:03;;;;;;;5.0;2.2;;;;;;;36.7;25.4;100830;;;;
2021/06/17 14:44:03;;;;;;;5.0;2.2;;;;;;;36.8;26.5;100840;;;;
2021/06/17 14:48:03;;;;;;;5.0;2.2;;;;;;;37.0;26.6;100830;;;;
2021/06/17 14:50:03;;;;;;;5.0;2.2;;;;;;;37.1;25.5;100830;;;;
2021/06/17 14:52:03;;;;;;;5.0;2.2;;;;;;;37.3;24.6;100830;;;;
2021/06/17 14:54:03;;;;;;;5.0;2.2;;;;;;;37.6;26.1;100840;;;;
2021/06/17 14:56:04;;;;;;;5.0;2.2;;;;;;;37.2;25.0;100840;;;;
2021/06/17 14:58:03;;;;;;;5.0;2.2;;;;;;;36.9;25.0;100840;;;;
2021/06/17 15:00:03;;;;;;;5.0;2.2;;;;;;;36.8;24.8;100840;;;;
2021/06/17 15:04:03;;;;;;;5.0;2.1;;;;;;;36.5;27.5;100840;;;;
2021/06/17 15:08:04;;;;;;;5.0;2.1;;;;;;;36.8;25.9;100840;;;;
2021/06/17 15:14:04;;;;;;;5.0;2.1;;;;;;;36.9;26.8;100840;;;;
2021/06/17 15:16:03;;;;;;;5.0;2.1;;;;;;;37.1;27.8;100840;;;;
2021/06/17 15:18:03;;;;;;;5.0;2.1;;;;;;;37.3;26.4;100840;;;;
2021/06/17 15:20:03;;;;;;;5.0;2.1;;;;;;;37.7;26.2;100840;;;;
2021/06/17 15:22:03;;;;;;;5.6;2.5;;;;;;;37.4;27.1;100840;;;;
2021/06/17 15:24:03;;;;;;;5.6;2.5;;;;;;;37.9;25.7;100850;;;;
2021/06/17 15:26:05;;;;;;;5.6;2.5;;;;;;;38.1;25.8;100850;;;;
2021/06/17 15:28:03;;;;;;;5.6;2.5;;;;;;;38.4;26.3;100850;;;;
2021/06/17 15:30:03;;;;;;;5.6;2.5;;;;;;;38.6;24.4;100850;;;;
2021/06/17 15:32:03;;;;;;;5.6;2.5;;;;;;;38.5;26.1;100850;;;;
2021/06/17 15:34:03;;;;;;;5.6;2.5;;;;;;;38.7;24.9;100860;;;;
2021/06/17 15:36:03;;;;;;;5.6;2.5;;;;;;;38.5;25.4;100860;;;;
2021/06/17 15:38:03;;;;;;;5.6;2.5;;;;;;;38.0;25.3;100860;;;;
2021/06/17 15:40:04;;;;;;;5.6;2.5;;;;;;;37.7;25.6;100860;;;;
2021/06/17 15:42:03;;;;;;;6.7;2.1;;;;;;;37.2;27.3;100850;;;;
2021/06/17 15:46:04;;;;;;;6.7;2.1;;;;;;;37.0;28.3;100850;;;;
2021/06/17 15:48:03;;;;;;;6.7;2.1;;;;;;;37.1;26.7;100850;;;;
2021/06/17 15:50:03;;;;;;;6.7;2.1;;;;;;;36.8;26.9;100840;;;;
2021/06/17 15:52:04;;;;;;;6.7;2.1;;;;;;;36.9;26.9;100850;;;;
2021/06/17 15:54:03;;;;;;;6.7;2.1;;;;;;;37.3;28.8;100850;;;;
2021/06/17 15:56:03;;;;;;;6.7;2.1;;;;;;;37.4;26.0;100850;;;;
2021/06/17 15:58:03;;;;;;;6.7;2.1;;;;;;;37.2;26.0;100850;;;;
2021/06/17 16:00:03;;;;;;;6.7;2.1;;;;;;;37.5;26.0;100860;;;;
2021/06/17 16:04:04;;;;;;;4.7;2.3;;;;;;;37.1;27.0;100860;;;;
2021/06/17 16:06:03;;;;;;;4.7;2.3;;;;;;;36.4;27.1;100860;;;;
2021/06/17 16:08:03;;;;;;;4.7;2.3;;;;;;;36.3;27.2;100860;;;;
2021/06/17 16:10:03;;;;;;;4.7;2.3;;;;;;;36.6;28.3;100860;;;;
2021/06/17 16:12:04;;;;;;;4.7;2.3;;;;;;;36.7;26.6;100860;;;;
2021/06/17 16:14:03;;;;;;;4.7;2.3;;;;;;;36.8;26.8;100860;;;;
2021/06/17 16:16:04;;;;;;;4.7;2.3;;;;;;;37.1;27.8;100870;;;;
2021/06/17 16:20:03;;;;;;;4.7;2.3;;;;;;;37.2;26.6;100860;;;;
2021/06/17 16:22:03;;;;;;;7.7;5.1;;;;;;;37.6;26.3;100860;;;;
2021/06/17 16:24:03;;;;;;;7.7;5.1;;;;;;;37.5;26.6;100860;;;;
2021/06/17 16:26:03;;;;;;;7.7;5.1;;;;;;;37.7;25.3;100860;;;;
2021/06/17 16:28:03;;;;;;;7.7;5.1;;;;;;;38.0;26.5;100850;;;;
2021/06/17 16:32:03;;;;;;;7.7;5.1;;;;;;;37.7;26.0;100860;;;;
2021/06/17 16:34:03;;;;;;;7.7;5.1;;;;;;;37.5;26.0;100850;;;;
2021/06/17 16:36:04;;;;;;;7.7;5.1;;;;;;;37.7;25.7;100860;;;;
2021/06/17 16:38:08;;;;;;;7.7;5.1;;;;;;;37.5;26.1;100850;;;;
2021/06/17 16:40:03;;;;;;;7.7;5.1;;;;;;;37.6;26.1;100850;;;;
2021/06/17 16:42:03;;;;;;;6.5;2.7;;;;;;;37.7;26.1;100850;;;;
2021/06/17 16:44:03;;;;;;;6.5;2.7;;;;;;;37.5;25.2;100860;;;;
2021/06/17 16:46:04;;;;;;;6.5;2.7;;;;;;;37.3;26.6;100860;;;;
2021/06/17 16:48:03;;;;;;;6.5;2.7;;;;;;;37.5;26.2;100850;;;;
2021/06/17 16:50:04;;;;;;;6.5;2.7;;;;;;;37.6;26.5;100860;;;;
2021/06/17 16:52:04;;;;;;;6.5;2.7;;;;;;;37.4;26.5;100860;;;;
2021/06/17 16:54:03;;;;;;;6.5;2.7;;;;;;;37.8;26.4;100860;;;;
2021/06/17 16:58:06;;;;;;;6.5;2.7;;;;;;;38.1;25.6;100860;;;;
2021/06/17 17:02:04;;;;;;;7.3;2.7;;;;;;;37.5;25.9;100870;;;;
2021/06/17 17:04:04;;;;;;;7.3;2.7;;;;;;;37.3;26.6;100870;;;;
2021/06/17 17:06:04;;;;;;;7.3;2.7;;;;;;;37.5;26.5;100880;;;;
2021/06/17 17:10:03;;;;;;;7.3;2.7;;;;;;;37.9;26.1;100880;;;;
2021/06/17 17:12:03;;;;;;;7.3;2.7;;;;;;;37.5;25.6;100870;;;;
2021/06/17 17:14:04;;;;;;;7.3;2.7;;;;;;;37.2;27.3;100870;;;;
2021/06/17 17:16:04;;;;;;;7.3;2.7;;;;;;;36.4;28.0;100870;;;;
2021/06/17 17:18:03;;;;;;;7.3;2.7;;;;;;;36.7;27.4;100870;;;;
2021/06/17 17:24:03;;;;;;;3.8;2.3;;;;;;;36.4;28.5;100870;;;;
2021/06/17 17:26:03;;;;;;;3.8;2.3;;;;;;;36.6;27.9;100880;;;;
2021/06/17 17:28:03;;;;;;;3.8;2.3;;;;;;;36.8;28.1;100880;;;;
2021/06/17 17:30:03;;;;;;;3.8;2.3;;;;;;;36.5;27.9;100880;;;;
2021/06/17 17:32:04;;;;;;;3.8;2.3;;;;;;;36.4;27.7;100880;;;;
2021/06/17 17:34:03;;;;;;;3.8;2.3;;;;;;;36.2;28.6;100890;;;;
2021/06/17 17:36:03;;;;;;;3.8;2.3;;;;;;;36.0;28.9;100890;;;;
2021/06/17 17:38:03;;;;;;;3.8;2.3;;;;;;;35.9;27.3;100880;;;;
2021/06/17 17:40:04;;;;;;;3.8;2.3;;;;;;;35.3;29.5;100890;;;;
2021/06/17 17:42:03;;;;;;;5.6;2.3;;;;;;;35.1;29.7;100890;;;;
2021/06/17 17:44:03;;;;;;;5.6;2.3;;;;;;;35.2;29.3;100890;;;;
2021/06/17 17:46:04;;;;;;;5.6;2.3;;;;;;;34.8;30.7;100900;;;;
2021/06/17 17:48:03;;;;;;;5.6;2.3;;;;;;;34.7;31.0;100910;;;;
2021/06/17 17:50:04;;;;;;;5.6;2.3;;;;;;;35.2;30.9;100910;;;;
2021/06/17 17:52:03;;;;;;;5.6;2.3;;;;;;;34.8;31.3;100910;;;;
2021/06/17 17:54:04;;;;;;;5.6;2.3;;;;;;;35.0;31.1;100910;;;;
2021/06/17 17:56:03;;;;;;;5.6;2.3;;;;;;;34.9;31.2;100910;;;;
2021/06/17 17:58:05;;;;;;;5.6;2.3;;;;;;;34.6;31.9;100910;;;;
2021/06/17 18:00:03;;;;;;;5.6;2.3;;;;;;;34.8;31.4;100920;;;;
2021/06/17 18:02:04;;;;;;;6.6;4.5;;;;;;;35.0;31.0;100920;;;;
2021/06/17 18:04:03;;;;;;;6.6;4.5;;;;;;;34.7;31.4;100930;;;;
2021/06/17 18:06:03;;;;;;;6.6;4.5;;;;;;;34.6;31.6;100930;;;;
2021/06/17 18:10:03;;;;;;;6.6;4.5;;;;;;;34.2;32.7;100920;;;;
2021/06/17 18:12:04;;;;;;;6.6;4.5;;;;;;;33.9;32.9;100920;;;;
2021/06/17 18:14:04;;;;;;;6.6;4.5;;;;;;;34.1;33.0;100920;;;;
2021/06/17 18:16:04;;;;;;;6.6;4.5;;;;;;;33.4;34.1;100930;;;;
2021/06/17 18:22:09;;;;;;;11.2;5.0;;;;;;;33.6;33.5;100940;;;;
2021/06/17 18:24:04;;;;;;;11.2;5.0;;;;;;;33.3;34.4;100940;;;;
2021/06/17 18:26:03;;;;;;;11.2;5.0;;;;;;;32.9;35.0;100940;;;;
2021/06/17 18:28:03;;;;;;;11.2;5.0;;;;;;;33.1;34.7;100930;;;;
2021/06/17 18:30:03;;;;;;;11.2;5.0;;;;;;;32.8;35.4;100930;;;;
2021/06/17 18:32:04;;;;;;;11.2;5.0;;;;;;;33.1;34.8;100940;;;;
2021/06/17 18:34:05;;;;;;;11.2;5.0;;;;;;;33.0;34.6;100940;;;;
2021/06/17 18:36:03;;;;;;;11.2;5.0;;;;;;;33.2;34.4;100940;;;;
2021/06/17 18:38:03;;;;;;;11.2;5.0;;;;;;;32.8;35.4;100940;;;;
2021/06/17 18:40:03;;;;;;;11.2;5.0;;;;;;;32.6;35.5;100940;;;;